createdAt,value
2023-02-17T00:00:35.841Z,47.00
2023-02-17T00:03:02.948Z,47.33
2023-02-17T00:05:29.726Z,49.07
2023-02-17T00:07:56.854Z,45.20
2023-02-17T00:10:23.631Z,46.83
2023-02-17T00:12:50.481Z,45.53
2023-02-17T00:15:18.633Z,43.00
2023-02-17T00:17:45.754Z,49.17
2023-02-17T00:20:12.932Z,49.23
2023-02-17T00:22:39.828Z,47.37
2023-02-17T00:25:07.047Z,44.87
2023-02-17T00:27:34.210Z,40.20
2023-02-17T00:30:01.052Z,40.33
2023-02-17T00:32:29.550Z,40.57
2023-02-17T00:34:58.340Z,42.90
2023-02-17T00:37:25.388Z,41.37
2023-02-17T00:39:52.195Z,44.33
2023-02-17T00:42:19.356Z,38.13
2023-02-17T00:44:46.113Z,36.10
2023-02-17T00:47:13.339Z,40.40
2023-02-17T00:49:41.523Z,39.00
2023-02-17T00:52:08.828Z,41.17
2023-02-17T00:54:35.708Z,38.43
2023-02-17T00:57:02.762Z,44.80
2023-02-17T00:59:29.992Z,41.03
2023-02-17T01:01:57.058Z,34.90
2023-02-17T01:04:23.963Z,41.97
2023-02-17T01:06:52.485Z,42.23
2023-02-17T01:09:19.307Z,42.17
2023-02-17T01:11:46.460Z,44.07
2023-02-17T01:14:13.941Z,45.57
2023-02-17T01:16:45.204Z,41.20
2023-02-17T01:19:13.669Z,42.90
2023-02-17T01:21:41.574Z,37.03
2023-02-17T01:24:11.462Z,39.57
2023-02-17T01:26:40.884Z,40.87
2023-02-17T01:29:08.757Z,34.53
2023-02-17T01:31:36.239Z,40.30
2023-02-17T01:34:04.794Z,39.37
2023-02-17T01:36:32.922Z,40.07
2023-02-17T01:39:00.383Z,38.50
2023-02-17T01:41:29.186Z,37.47
2023-02-17T01:44:08.467Z,38.83
2023-02-17T01:46:36.915Z,37.13
2023-02-17T01:49:07.241Z,41.13
2023-02-17T01:51:36.127Z,40.03
2023-02-17T01:54:08.938Z,39.83
2023-02-17T01:56:41.901Z,37.57
2023-02-17T01:59:13.776Z,41.97
2023-02-17T02:01:41.010Z,36.97
2023-02-17T02:04:09.421Z,35.37
2023-02-17T02:06:40.969Z,39.43
2023-02-17T02:09:10.984Z,39.07
2023-02-17T02:11:39.543Z,32.60
2023-02-17T02:14:08.416Z,39.67
2023-02-17T02:16:45.081Z,33.57
2023-02-17T02:19:34.766Z,35.60
2023-02-17T02:22:31.629Z,31.77
2023-02-17T02:25:09.077Z,33.80
2023-02-17T02:27:58.765Z,33.60
2023-02-17T02:30:52.611Z,33.23
2023-02-17T02:33:32.413Z,32.47
2023-02-17T02:36:05.718Z,32.90
2023-02-17T02:38:39.393Z,34.73
2023-02-17T02:41:11.712Z,32.77
2023-02-17T02:43:39.006Z,32.77
2023-02-17T02:46:06.766Z,34.83
2023-02-17T02:48:35.592Z,35.60
2023-02-17T02:51:23.976Z,38.00
2023-02-17T02:54:22.046Z,36.43
2023-02-17T02:57:04.026Z,34.90
2023-02-17T02:59:44.313Z,33.87
2023-02-17T03:02:18.302Z,36.93
2023-02-17T03:04:52.151Z,33.33
2023-02-17T03:07:22.883Z,33.00
2023-02-17T03:09:51.726Z,31.73
2023-02-17T03:12:18.799Z,35.57
2023-02-17T03:14:48.031Z,32.93
2023-02-17T03:17:15.248Z,29.20
2023-02-17T03:19:45.458Z,32.67
2023-02-17T03:22:20.161Z,30.20
2023-02-17T03:24:47.185Z,35.57
2023-02-17T03:27:14.458Z,31.80
2023-02-17T03:29:42.788Z,31.53
2023-02-17T03:32:09.927Z,31.00
2023-02-17T03:34:36.968Z,32.17
2023-02-17T03:37:04.286Z,32.43
2023-02-17T03:39:32.433Z,34.47
2023-02-17T03:41:59.243Z,30.93
2023-02-17T03:44:26.139Z,30.53
2023-02-17T03:46:53.544Z,28.60
2023-02-17T03:49:20.688Z,37.50
2023-02-17T03:51:48.010Z,29.33
2023-02-17T03:54:14.856Z,28.60
2023-02-17T03:56:43.809Z,26.43
2023-02-17T03:59:10.725Z,27.20
2023-02-17T04:01:38.169Z,30.63
2023-02-17T04:04:05.126Z,27.67
2023-02-17T04:06:32.450Z,31.23
2023-02-17T04:08:59.300Z,25.37
2023-02-17T04:11:26.398Z,32.93
2023-02-17T04:13:54.895Z,28.93
2023-02-17T04:16:22.060Z,31.00
2023-02-17T04:18:48.912Z,28.17
2023-02-17T04:21:16.109Z,26.80
2023-02-17T04:23:43.023Z,28.33
2023-02-17T04:26:10.218Z,28.33
2023-02-17T04:28:41.415Z,26.20
2023-02-17T04:31:10.263Z,27.17
2023-02-17T04:33:37.977Z,30.53
2023-02-17T04:36:06.315Z,24.93
2023-02-17T04:38:33.904Z,25.70
2023-02-17T04:41:01.527Z,29.20
2023-02-17T04:43:28.895Z,29.37
2023-02-17T04:45:56.148Z,26.17
2023-02-17T04:48:24.928Z,27.17
2023-02-17T04:50:52.460Z,25.43
2023-02-17T04:53:19.527Z,26.37
2023-02-17T04:55:48.994Z,31.10
2023-02-17T04:58:15.859Z,25.93
2023-02-17T05:00:42.954Z,33.30
2023-02-17T05:03:09.750Z,29.27
2023-02-17T05:05:37.874Z,27.73
2023-02-17T05:08:05.093Z,27.80
2023-02-17T05:10:32.288Z,29.47
2023-02-17T05:12:59.112Z,27.43
2023-02-17T05:15:26.173Z,27.43
2023-02-17T05:17:53.022Z,28.30
2023-02-17T05:20:20.380Z,28.10
2023-02-17T05:22:48.544Z,28.93
2023-02-17T05:25:15.866Z,28.43
2023-02-17T05:27:42.756Z,32.50
2023-02-17T05:30:10.338Z,31.17
2023-02-17T05:32:37.198Z,33.47
2023-02-17T05:35:04.588Z,33.03
2023-02-17T05:37:31.455Z,34.63
2023-02-17T05:39:59.830Z,34.80
2023-02-17T05:42:28.812Z,32.87
2023-02-17T05:44:56.440Z,33.40
2023-02-17T05:47:23.757Z,34.20
2023-02-17T05:49:50.732Z,33.70
2023-02-17T05:52:18.375Z,32.53
2023-02-17T05:54:45.513Z,34.83
2023-02-17T05:57:14.328Z,33.13
2023-02-17T05:59:41.524Z,35.77
2023-02-17T06:02:08.338Z,32.50
2023-02-17T06:04:35.509Z,35.33
2023-02-17T06:07:02.450Z,31.17
2023-02-17T06:09:29.748Z,28.13
2023-02-17T06:11:56.502Z,33.27
2023-02-17T06:14:24.651Z,29.97
2023-02-17T06:16:51.486Z,27.53
2023-02-17T06:19:18.304Z,31.90
2023-02-17T06:21:45.123Z,30.43
2023-02-17T06:24:12.357Z,31.90
2023-02-17T06:26:39.156Z,29.13
2023-02-17T06:29:06.638Z,30.93
2023-02-17T06:31:34.885Z,27.27
2023-02-17T06:34:01.909Z,25.10
2023-02-17T06:36:28.658Z,25.83
2023-02-17T06:38:55.760Z,28.27
2023-02-17T06:41:22.614Z,27.83
2023-02-17T06:43:49.766Z,28.03
2023-02-17T06:46:16.636Z,25.00
2023-02-17T06:48:45.083Z,26.60
2023-02-17T06:51:11.995Z,24.73
2023-02-17T06:53:38.900Z,23.33
2023-02-17T06:56:06.668Z,25.10
2023-02-17T06:58:35.693Z,23.17
2023-02-17T07:01:05.008Z,21.93
2023-02-17T07:03:32.962Z,23.53
2023-02-17T07:06:01.216Z,23.73
2023-02-17T07:08:28.369Z,25.37
2023-02-17T07:10:55.625Z,22.37
2023-02-17T07:13:22.776Z,21.83
2023-02-17T07:15:49.600Z,23.90
2023-02-17T07:18:16.919Z,27.03
2023-02-17T07:20:43.737Z,22.47
2023-02-17T07:23:11.884Z,23.00
2023-02-17T07:25:38.689Z,20.03
2023-02-17T07:28:05.594Z,20.53
2023-02-17T07:30:32.510Z,22.83
2023-02-17T07:32:59.392Z,19.47
2023-02-17T07:35:26.285Z,21.30
2023-02-17T07:37:53.858Z,18.47
2023-02-17T07:40:22.161Z,19.77
2023-02-17T07:42:49.233Z,19.20
2023-02-17T07:45:16.181Z,20.17
2023-02-17T07:47:43.679Z,22.27
2023-02-17T07:50:10.823Z,20.13
2023-02-17T07:52:38.018Z,19.63
2023-02-17T07:55:05.539Z,21.87
2023-02-17T07:57:33.755Z,23.43
2023-02-17T08:00:00.536Z,21.23
2023-02-17T08:02:27.645Z,21.77
2023-02-17T08:04:54.593Z,20.63
2023-02-17T08:07:21.367Z,18.90
2023-02-17T08:10:06.890Z,18.47
2023-02-17T08:12:53.584Z,19.87
2023-02-17T08:15:20.609Z,16.30
2023-02-17T08:17:50.992Z,18.27
2023-02-17T08:20:18.316Z,15.37
2023-02-17T08:22:45.193Z,15.13
2023-02-17T08:25:12.417Z,13.07
2023-02-17T08:27:40.571Z,14.87
2023-02-17T08:30:08.564Z,14.77
2023-02-17T08:32:35.382Z,15.00
2023-02-17T08:35:02.608Z,12.13
2023-02-17T08:37:30.760Z,14.07
2023-02-17T08:39:59.334Z,12.37
2023-02-17T08:42:26.665Z,13.13
2023-02-17T08:44:55.567Z,13.33
2023-02-17T08:47:22.360Z,11.97
2023-02-17T08:49:49.302Z,12.97
2023-02-17T08:52:16.261Z,20.67
2023-02-17T08:54:43.527Z,15.33
2023-02-17T08:57:10.370Z,11.63
2023-02-17T08:59:37.193Z,11.30
2023-02-17T09:02:05.845Z,11.80
2023-02-17T09:04:33.214Z,11.23
2023-02-17T09:07:00.147Z,12.83
2023-02-17T09:09:27.614Z,12.17
2023-02-17T09:11:56.230Z,13.13
2023-02-17T09:14:26.719Z,11.50
2023-02-17T09:16:55.113Z,11.37
2023-02-17T09:19:24.284Z,12.27
2023-02-17T09:21:51.148Z,10.63
2023-02-17T09:24:18.627Z,11.10
2023-02-17T09:26:45.679Z,11.60
2023-02-17T09:29:12.909Z,10.90
2023-02-17T09:31:40.036Z,13.20
2023-02-17T09:34:07.510Z,12.57
2023-02-17T09:36:39.524Z,13.43
2023-02-17T09:39:06.769Z,12.30
2023-02-17T09:41:39.249Z,13.97
2023-02-17T09:44:14.152Z,15.43
2023-02-17T09:46:59.713Z,10.00
2023-02-17T09:49:35.010Z,10.90
2023-02-17T09:52:08.881Z,11.67
2023-02-17T09:54:40.834Z,11.43
2023-02-17T09:57:10.975Z,8.53
2023-02-17T09:59:43.659Z,10.23
2023-02-17T10:02:19.261Z,10.23
2023-02-17T10:04:52.167Z,9.83
2023-02-17T10:07:27.529Z,12.83
2023-02-17T10:10:02.744Z,9.57
2023-02-17T10:12:37.252Z,9.83
2023-02-17T10:15:10.148Z,13.60
2023-02-17T10:17:45.565Z,9.37
2023-02-17T10:20:17.003Z,10.37
2023-02-17T10:22:49.940Z,9.60
2023-02-17T10:25:18.881Z,9.43
2023-02-17T10:27:52.076Z,11.37
2023-02-17T10:30:28.014Z,10.00
2023-02-17T10:33:03.337Z,10.37
2023-02-17T10:35:47.000Z,13.10
2023-02-17T10:38:19.198Z,9.67
2023-02-17T10:40:50.207Z,11.87
2023-02-17T10:43:22.535Z,9.70
2023-02-17T10:45:51.565Z,10.33
2023-02-17T10:48:23.100Z,12.30
2023-02-17T10:50:50.657Z,12.90
2023-02-17T10:53:22.546Z,9.23
2023-02-17T10:55:56.236Z,9.57
2023-02-17T10:58:28.909Z,8.53
2023-02-17T11:00:57.532Z,9.23
2023-02-17T11:03:27.286Z,10.10
2023-02-17T11:05:56.829Z,11.47
2023-02-17T11:08:33.056Z,9.73
2023-02-17T11:11:02.765Z,12.03
2023-02-17T11:13:34.635Z,10.53
2023-02-17T11:16:02.374Z,9.90
2023-02-17T11:18:34.758Z,12.70
2023-02-17T11:21:05.890Z,11.13
2023-02-17T11:23:35.925Z,12.23
2023-02-17T11:26:09.824Z,15.53
2023-02-17T11:28:37.280Z,10.43
2023-02-17T11:31:05.089Z,10.33
2023-02-17T11:33:34.995Z,11.63
2023-02-17T11:36:03.213Z,13.33
2023-02-17T11:38:42.844Z,12.50
2023-02-17T11:41:11.398Z,10.97
2023-02-17T11:43:39.769Z,9.50
2023-02-17T12:02:52.075Z,10.13
2023-02-17T12:05:25.161Z,8.23
2023-02-17T12:08:03.879Z,8.23
2023-02-17T12:10:43.237Z,8.43
2023-02-17T12:13:26.675Z,9.90
2023-02-17T12:16:07.441Z,8.13
2023-02-17T12:18:47.996Z,7.83
2023-02-17T12:21:23.322Z,8.53
2023-02-17T12:24:03.884Z,10.40
2023-02-17T12:26:38.041Z,8.87
2023-02-17T12:29:18.778Z,8.37
2023-02-17T12:32:07.553Z,7.47
2023-02-17T12:34:41.786Z,8.60
2023-02-17T12:37:19.179Z,7.60
2023-02-17T12:39:51.744Z,7.93
2023-02-17T12:42:23.488Z,11.37
2023-02-17T12:44:54.564Z,11.40
2023-02-17T12:47:26.979Z,22.93
2023-02-17T12:49:59.409Z,9.47
2023-02-17T12:52:29.950Z,8.00
2023-02-17T12:55:02.033Z,8.57
2023-02-17T12:57:37.589Z,10.17
2023-02-17T13:00:17.708Z,14.97
2023-02-17T13:02:45.316Z,9.40
2023-02-17T13:05:24.846Z,9.70
2023-02-17T13:07:57.192Z,9.60
2023-02-17T13:10:33.648Z,10.03
2023-02-17T13:13:03.912Z,12.53
2023-02-17T13:15:34.603Z,12.07
2023-02-17T13:18:04.058Z,14.43
2023-02-17T13:20:55.966Z,11.93
2023-02-17T13:23:35.306Z,9.77
2023-02-17T13:26:34.553Z,12.80
2023-02-17T13:29:19.761Z,13.97
2023-02-17T13:31:50.542Z,14.30
2023-02-17T13:34:33.491Z,12.13
2023-02-17T13:37:04.047Z,16.20
2023-02-17T13:39:37.170Z,14.20
2023-02-17T13:42:25.200Z,18.93
2023-02-17T13:44:52.098Z,14.40
2023-02-17T13:47:27.790Z,15.40
2023-02-17T13:49:57.011Z,16.03
2023-02-17T13:52:28.498Z,16.43
2023-02-17T13:54:57.468Z,16.87
2023-02-17T13:57:26.749Z,19.07
2023-02-17T14:00:04.284Z,18.77
2023-02-17T14:02:36.300Z,21.40
2023-02-17T14:05:16.081Z,18.00
2023-02-17T14:07:47.722Z,21.87
2023-02-17T14:10:24.629Z,17.57
2023-02-17T14:12:51.952Z,18.23
2023-02-17T14:15:21.581Z,21.77
2023-02-17T14:17:48.488Z,22.70
2023-02-17T14:20:31.255Z,19.13
2023-02-17T14:23:05.315Z,23.33
2023-02-17T14:25:34.973Z,20.20
2023-02-17T14:28:02.385Z,17.10
2023-02-17T14:30:31.985Z,15.90
2023-02-17T14:33:07.156Z,14.53
2023-02-17T14:35:35.528Z,17.73
2023-02-17T14:38:21.331Z,13.97
2023-02-17T14:40:48.687Z,14.80
2023-02-17T14:43:15.788Z,13.57
2023-02-17T14:45:43.080Z,14.17
2023-02-17T14:48:10.116Z,16.67
2023-02-17T14:50:42.516Z,13.43
2023-02-17T14:53:16.182Z,13.20
2023-02-17T14:55:47.277Z,20.30
2023-02-17T14:58:18.755Z,12.57
2023-02-17T15:00:45.612Z,12.97
2023-02-17T15:03:12.450Z,16.27
2023-02-17T15:05:39.465Z,14.83
2023-02-17T15:08:08.656Z,15.83
2023-02-17T15:10:38.535Z,15.37
2023-02-17T15:13:05.813Z,11.33
2023-02-17T15:15:33.095Z,15.13
2023-02-17T15:17:59.980Z,11.63
2023-02-17T15:20:27.018Z,13.47
2023-02-17T15:22:56.341Z,9.57
2023-02-17T15:25:24.627Z,10.70
2023-02-17T15:27:53.085Z,13.27
2023-02-17T15:30:21.299Z,9.60
2023-02-17T15:32:48.708Z,10.87
2023-02-17T15:35:18.328Z,9.00
2023-02-17T15:37:45.278Z,9.63
2023-02-17T15:40:17.646Z,7.37
2023-02-17T15:42:46.079Z,7.47
2023-02-17T15:45:19.242Z,7.37
2023-02-17T15:47:47.139Z,8.10
2023-02-17T15:50:19.222Z,7.83
2023-02-17T15:52:47.497Z,8.60
2023-02-17T15:55:14.970Z,10.63
2023-02-17T15:57:46.168Z,13.17
2023-02-17T16:00:21.938Z,7.37
2023-02-17T16:02:49.121Z,6.60
2023-02-17T16:05:21.820Z,7.00
2023-02-17T16:07:49.197Z,7.00
2023-02-17T16:10:18.815Z,5.77
2023-02-17T16:12:47.165Z,6.43
2023-02-17T16:15:16.578Z,5.60
2023-02-17T16:17:45.678Z,8.90
2023-02-17T16:20:16.911Z,5.20
2023-02-17T16:22:45.031Z,6.57
2023-02-17T16:25:12.769Z,6.43
2023-02-17T16:27:41.063Z,5.50
2023-02-17T16:30:16.203Z,5.10
2023-02-17T16:32:45.326Z,5.47
2023-02-17T16:35:17.007Z,10.47
2023-02-17T16:37:51.954Z,8.10
2023-02-17T16:40:20.532Z,4.67
2023-02-17T16:42:47.351Z,6.80
2023-02-17T16:45:16.768Z,6.17
2023-02-17T16:47:48.122Z,6.33
2023-02-17T16:50:25.051Z,5.73
2023-02-17T16:52:53.526Z,6.47
2023-02-17T16:55:23.257Z,6.40
2023-02-17T16:57:50.948Z,7.63
2023-02-17T17:00:21.562Z,6.03
2023-02-17T17:02:51.549Z,6.80
2023-02-17T17:05:20.146Z,6.67
2023-02-17T17:07:47.349Z,10.50
2023-02-17T17:10:17.220Z,6.37
2023-02-17T17:12:45.545Z,7.33
2023-02-17T17:15:13.337Z,9.73
2023-02-17T17:17:44.064Z,6.90
2023-02-17T17:20:16.447Z,5.90
2023-02-17T17:22:44.153Z,6.50
2023-02-17T17:25:11.111Z,7.53
2023-02-17T17:27:38.003Z,7.33
2023-02-17T17:30:06.610Z,7.33
2023-02-17T17:32:33.585Z,6.93
2023-02-17T17:35:00.883Z,7.00
2023-02-17T17:37:29.152Z,9.20
2023-02-17T17:39:56.015Z,9.53
2023-02-17T17:42:22.938Z,7.47
2023-02-17T17:44:50.095Z,7.30
2023-02-17T17:47:29.465Z,7.10
2023-02-17T17:49:57.185Z,7.37
2023-02-17T17:52:24.212Z,11.20
2023-02-17T17:54:52.454Z,6.57
2023-02-17T17:57:19.158Z,6.77
2023-02-17T17:59:46.405Z,7.73
2023-02-17T18:02:13.215Z,9.20
2023-02-17T18:04:40.064Z,13.10
2023-02-17T18:07:07.067Z,7.80
2023-02-17T18:09:37.701Z,7.73
2023-02-17T18:12:10.928Z,8.80
2023-02-17T18:14:39.899Z,9.03
2023-02-17T18:17:09.061Z,9.73
2023-02-17T18:19:36.035Z,6.93
2023-02-17T18:22:03.002Z,11.73
2023-02-17T18:24:30.192Z,13.03
2023-02-17T18:26:57.240Z,10.30
2023-02-17T18:29:25.634Z,11.03
2023-02-17T18:31:52.500Z,11.37
2023-02-17T18:34:19.487Z,13.67
2023-02-17T18:36:46.410Z,10.83
2023-02-17T18:39:13.542Z,9.57
2023-02-17T18:41:40.422Z,8.97
2023-02-17T18:44:08.079Z,8.87
2023-02-17T18:46:39.792Z,10.10
2023-02-17T18:49:07.268Z,12.67
2023-02-17T18:51:34.570Z,15.17
2023-02-17T18:54:02.183Z,12.13
2023-02-17T18:56:32.435Z,18.97
2023-02-17T18:58:59.705Z,10.33
2023-02-17T19:01:28.530Z,12.47
2023-02-17T19:03:57.440Z,11.77
2023-02-17T19:06:28.678Z,11.27
2023-02-17T19:08:56.234Z,14.87
2023-02-17T19:11:24.004Z,10.27
2023-02-17T19:13:51.456Z,17.77
2023-02-17T19:16:21.589Z,14.53
2023-02-17T19:18:49.040Z,14.37
2023-02-17T19:21:17.880Z,15.77
2023-02-17T19:23:45.344Z,15.63
2023-02-17T19:26:13.461Z,14.40
2023-02-17T19:28:41.182Z,18.67
2023-02-17T19:31:09.131Z,12.77
2023-02-17T19:33:36.281Z,8.37
2023-02-17T19:36:07.280Z,8.13
2023-02-17T19:38:36.154Z,7.40
2023-02-17T19:41:03.502Z,10.17
2023-02-17T19:43:30.812Z,11.13
2023-02-17T19:45:57.732Z,8.37
2023-02-17T19:48:25.140Z,6.47
2023-02-17T19:50:52.429Z,5.73
2023-02-17T19:53:19.404Z,14.30
2023-02-17T19:55:47.686Z,7.40
2023-02-17T19:58:14.798Z,14.20
2023-02-17T20:00:41.738Z,8.73
2023-02-17T20:03:08.725Z,8.73
2023-02-17T20:05:39.066Z,10.47
2023-02-17T20:08:06.146Z,10.77
2023-02-17T20:10:33.783Z,12.60
2023-02-17T20:13:02.391Z,9.63
2023-02-17T20:15:29.167Z,8.53
2023-02-17T20:17:56.506Z,12.10
2023-02-17T20:20:23.421Z,11.57
2023-02-17T20:22:51.319Z,7.53
2023-02-17T20:25:18.377Z,8.23
2023-02-17T20:27:45.502Z,12.27
2023-02-17T20:30:14.394Z,10.60
2023-02-17T20:32:41.334Z,13.17
2023-02-17T20:35:08.476Z,7.20
2023-02-17T20:37:35.785Z,9.90
2023-02-17T20:40:03.980Z,10.77
2023-02-17T20:42:30.915Z,14.30
2023-02-17T20:44:57.863Z,11.57
2023-02-17T20:47:26.050Z,10.43
2023-02-17T20:49:52.850Z,9.00
2023-02-17T20:52:19.686Z,13.93
2023-02-17T20:54:46.469Z,12.37
2023-02-17T20:57:15.282Z,12.23
2023-02-17T20:59:42.206Z,11.00
2023-02-17T21:02:10.442Z,8.13
2023-02-17T21:04:38.589Z,12.00
2023-02-17T21:07:05.602Z,11.27
2023-02-17T21:09:32.411Z,13.97
2023-02-17T21:11:59.623Z,12.27
2023-02-17T21:14:26.490Z,12.40
2023-02-17T21:16:53.698Z,10.67
2023-02-17T21:19:21.034Z,11.17
2023-02-17T21:21:49.830Z,8.30
2023-02-17T21:24:16.715Z,10.40
2023-02-17T21:26:43.911Z,10.77
2023-02-17T21:29:10.680Z,13.87
2023-02-17T21:31:37.993Z,12.20
2023-02-17T21:34:05.682Z,11.67
2023-02-17T21:36:33.291Z,9.23
2023-02-17T21:39:01.459Z,14.80
2023-02-17T21:41:30.617Z,7.43
2023-02-17T21:44:16.415Z,7.67
2023-02-17T21:46:44.580Z,9.23
2023-02-17T21:49:12.266Z,14.37
2023-02-17T21:51:40.403Z,10.87
2023-02-17T21:54:09.644Z,11.43
2023-02-17T21:56:36.899Z,7.80
2023-02-17T21:59:04.697Z,13.57
2023-02-17T22:01:32.166Z,11.87
2023-02-17T22:03:59.129Z,9.27
2023-02-17T22:06:28.604Z,9.27
2023-02-17T22:08:56.383Z,11.10
2023-02-17T22:11:27.041Z,7.00
2023-02-17T22:13:55.195Z,7.97
2023-02-17T22:16:22.566Z,9.77
2023-02-17T22:18:49.582Z,11.50
2023-02-17T22:21:17.086Z,10.40
2023-02-17T22:23:44.999Z,10.43
2023-02-17T22:26:14.847Z,6.97
2023-02-17T22:28:43.453Z,10.47
2023-02-17T22:31:12.763Z,8.90
2023-02-17T22:33:39.794Z,6.50
2023-02-17T22:36:09.771Z,14.13
2023-02-17T22:38:37.393Z,8.77
2023-02-17T22:41:06.768Z,14.67
2023-02-17T22:43:36.224Z,9.33
2023-02-17T22:46:04.848Z,11.33
2023-02-17T22:48:33.422Z,11.53
2023-02-17T22:51:05.824Z,10.77
2023-02-17T22:53:33.782Z,8.03
2023-02-17T22:56:00.708Z,12.40
2023-02-17T22:58:27.705Z,11.73
2023-02-17T23:01:04.575Z,11.23
2023-02-17T23:03:32.103Z,8.37
2023-02-17T23:06:00.278Z,9.90
2023-02-17T23:08:27.825Z,9.70
2023-02-17T23:10:54.697Z,10.27
2023-02-17T23:13:21.884Z,13.83
2023-02-17T23:15:49.562Z,11.93
2023-02-17T23:18:19.433Z,5.40
2023-02-17T23:20:48.258Z,15.40
2023-02-17T23:23:15.666Z,16.07
2023-02-17T23:25:47.424Z,10.77
2023-02-17T23:28:14.294Z,12.77
2023-02-17T23:30:42.333Z,8.97
2023-02-17T23:33:09.297Z,17.30
2023-02-17T23:35:41.189Z,12.53
2023-02-17T23:38:08.578Z,11.63
2023-02-17T23:40:36.297Z,5.80
2023-02-17T23:43:03.331Z,10.70
2023-02-17T23:45:30.568Z,6.27
2023-02-17T23:47:58.116Z,10.13
2023-02-17T23:50:25.690Z,10.33
2023-02-17T23:52:54.120Z,11.93
2023-02-17T23:55:21.737Z,10.23
2023-02-17T23:57:48.920Z,9.63
